METAR / TAF

LSZC – Buochs

METAR LSZC 181250Z 06005KT 030V100 9999 NCD 19/15 Q1016

TAF LSZC 171950Z 1719/1724 CNL

LSMA – Alpnach Mil

METAR LSMA 181320Z NIL

TAF LSMA 180925Z 1810/1916 06005KT 9999 FEW010 BKN014 BECMG 1810/1812 FEW030 TEMPO 1904/1916 RA BKN014 PROB30 TEMPO 1906/1912 4500 +RA BKN009

LSME – Emmen Mil

METAR LSME 181320Z NIL

TAF LSME 180925Z 1810/1916 04005KT 9999 FEW005 BKN009 BECMG 1810/1812 FEW030 PROB40 1903/1906 BKN010 TEMPO 1906/1916 RA PROB40 TEMPO 1906/1912 BKN012

LSZH – Zurich

METAR LSZH 181250Z 06005KT 030V110 9999 FEW040 21/11 Q1016 NOSIG

TAF LSZH 181125Z 1812/1918 06005KT CAVOK TX22/1814Z TN10/1905Z TX15/1914Z BECMG 1816/1818 VRB02KT PROB40 1903/1908 9999 BKN010 BECMG 1907/1910 9999 BKN020 TEMPO 1910/1918 RA

LSZB – Bern

METAR LSZB 181250Z 26006KT 200V330 CAVOK 21/13 Q1015 NOSIG

TAF LSZB 181202Z 1812/1821 27005KT CAVOK

LFSB – Bale

METAR

TAF LFSB 181100Z 1812/1912 36006KT 9999 FEW040 PROB40 TEMPO 1901/1906 3000 MIFG PROB40 1909/1912 -RA BKN050

Radar

Föhn diagram

From an air pressure difference of approx. 4 hPa (dashed line) between the northern and southern Alps, Föhn can occur. The higher the pressure difference, the more violent the Föhn!

Forecast

Privacy Settings
We use cookies to enhance your experience while using our website. If you are using our Services via a browser you can restrict, block or remove cookies through your web browser settings. We also use content and scripts from third parties that may use tracking technologies. You can selectively provide your consent below to allow such third party embeds. For complete information about the cookies we use, data we collect and how we process them, please check our Privacy Policy
Youtube
Consent to display content from Youtube
Vimeo
Consent to display content from Vimeo
Google Maps
Consent to display content from Google